Time;durP1;ratioP1;P1;durP2;ratioP2;P2;SDS_P1;SDS_P2;PMS_P1;PMS_P2;Temp;Humidity;BMP_temperature;BMP_pressure;BME280_temperature;BME280_humidity;BME280_pressure;Samples;Min_cycle;Max_cycle;Signal;HPM_P1;HPM_P2
2022/06/23 00:01:59;;;;;;;12.85;4.38;;;;;;;21.00;51.49;100984.94;5096011;28;20107;-55
2022/06/23 00:04:35;;;;;;;10.45;4.28;;;;;;;20.90;52.26;100992.28;5095986;28;20028;-56
2022/06/23 00:07:18;;;;;;;7.50;3.53;;;;;;;20.74;53.04;100992.25;5095775;28;20483;-54
2022/06/23 00:09:44;;;;;;;10.07;3.55;;;;;;;20.97;51.96;100990.91;5096250;28;20024;-57
2022/06/23 00:12:19;;;;;;;8.48;3.22;;;;;;;20.95;52.01;100982.22;5096143;28;20538;-56
2022/06/23 00:14:47;;;;;;;9.40;3.35;;;;;;;21.04;51.17;100974.31;5096107;28;20059;-54
2022/06/23 00:17:56;;;;;;;8.02;3.78;;;;;;;21.11;51.35;100991.19;5095695;28;20034;-54
2022/06/23 00:20:53;;;;;;;6.97;3.90;;;;;;;21.03;51.86;100983.56;5095996;28;20035;-56
2022/06/23 00:23:21;;;;;;;11.80;3.88;;;;;;;20.92;51.83;100984.66;5073520;28;20481;-52
2022/06/23 00:26:01;;;;;;;5.95;3.40;;;;;;;20.46;52.68;100995.47;5073479;28;20071;-53
2022/06/23 00:28:36;;;;;;;7.20;3.20;;;;;;;20.54;54.02;100995.78;5072242;28;20040;-52
2022/06/23 00:31:05;;;;;;;7.63;3.50;;;;;;;20.02;54.12;101001.25;5073158;28;20048;-53
2022/06/23 00:33:39;;;;;;;8.20;2.90;;;;;;;19.99;55.13;100996.38;5073102;28;20043;-52
2022/06/23 00:36:34;;;;;;;5.70;2.90;;;;;;;19.83;55.59;100989.22;5072850;28;20033;-51
2022/06/23 00:39:00;;;;;;;7.78;3.63;;;;;;;19.68;55.52;100988.03;5073223;28;20029;-56
2022/06/23 00:41:35;;;;;;;6.28;3.13;;;;;;;19.70;56.41;100980.44;5073055;28;20025;-55
2022/06/23 00:44:06;;;;;;;7.30;3.47;;;;;;;19.49;55.83;100984.94;5073064;28;20048;-60
2022/06/23 00:46:43;;;;;;;7.20;2.75;;;;;;;19.36;56.54;100992.69;5073225;28;20020;-53
2022/06/23 00:49:29;;;;;;;4.15;2.72;;;;;;;19.53;56.47;101001.47;5073126;28;20120;-54
2022/06/23 00:52:10;;;;;;;6.00;2.92;;;;;;;19.39;56.51;101011.19;5073484;28;20040;-54
2022/06/23 00:54:43;;;;;;;5.45;2.67;;;;;;;18.98;58.20;101027.91;5088831;28;20122;-55
2022/06/23 00:57:21;;;;;;;5.28;2.75;;;;;;;18.83;58.51;101025.09;5094961;28;20047;-54
2022/06/23 01:00:23;;;;;;;8.70;3.00;;;;;;;18.91;58.79;101031.94;5095001;28;20539;-53
2022/06/23 01:03:03;;;;;;;5.95;3.40;;;;;;;18.82;59.28;101028.03;5095253;28;20375;-53
2022/06/23 01:05:37;;;;;;;10.18;3.65;;;;;;;18.76;59.02;101018.22;5094860;28;20031;-54
2022/06/23 01:08:12;;;;;;;5.63;3.25;;;;;;;18.73;58.76;101003.28;5095521;28;20170;-54
2022/06/23 01:10:49;;;;;;;9.02;3.90;;;;;;;18.69;59.40;101002.16;5094670;28;20058;-56
2022/06/23 01:13:28;;;;;;;9.50;4.03;;;;;;;18.62;59.39;100982.53;5095111;28;20387;-56
2022/06/23 01:16:20;;;;;;;11.57;3.92;;;;;;;18.69;59.37;100965.00;5094843;28;20488;-56
2022/06/23 01:19:09;;;;;;;9.98;3.90;;;;;;;18.79;58.82;100961.56;5093303;28;20411;-55
2022/06/23 01:21:58;;;;;;;10.77;3.97;;;;;;;18.85;58.25;100970.56;5094644;28;20111;-55
2022/06/23 01:24:42;;;;;;;5.95;3.17;;;;;;;18.71;58.46;100965.59;5094420;28;20024;-55
2022/06/23 01:27:22;;;;;;;9.40;3.78;;;;;;;18.62;58.90;100960.84;5094819;28;20020;-56
2022/06/23 01:29:56;;;;;;;8.63;3.38;;;;;;;18.87;58.33;100968.41;5094279;28;20444;-56
2022/06/23 01:32:40;;;;;;;13.05;4.28;;;;;;;19.02;57.62;100973.97;5094439;28;20476;-55
2022/06/23 01:35:25;;;;;;;10.30;3.70;;;;;;;19.06;57.95;100972.38;5095063;28;20024;-56
2022/06/23 01:38:11;;;;;;;10.32;4.10;;;;;;;18.99;58.21;100969.09;5094133;28;20105;-55
2022/06/23 01:40:55;;;;;;;12.05;4.13;;;;;;;18.73;58.56;100966.13;5094292;28;20027;-56
2022/06/23 01:43:36;;;;;;;8.38;3.50;;;;;;;19.09;57.87;100968.31;5093859;28;20040;-56
2022/06/23 01:46:25;;;;;;;7.25;3.63;;;;;;;19.24;57.00;100971.97;5094200;28;20031;-56
2022/06/23 01:49:00;;;;;;;7.93;3.85;;;;;;;19.12;57.41;100968.63;5094090;28;20491;-56
2022/06/23 01:51:36;;;;;;;7.65;3.42;;;;;;;19.10;57.40;100973.53;5093967;28;20468;-56
2022/06/23 01:54:20;;;;;;;8.27;4.15;;;;;;;19.04;57.95;100971.00;5093901;28;20472;-56
2022/06/23 01:57:03;;;;;;;13.05;4.25;;;;;;;18.75;58.71;100971.28;5093952;28;20107;-56
2022/06/23 01:59:29;;;;;;;6.57;3.55;;;;;;;18.59;59.22;100970.28;5093853;28;20099;-56
2022/06/23 02:02:10;;;;;;;8.18;3.05;;;;;;;18.36;60.19;100976.03;5093709;28;20024;-56
2022/06/23 02:04:51;;;;;;;7.60;3.20;;;;;;;18.38;60.41;100972.00;5093875;28;20024;-56
2022/06/23 02:07:27;;;;;;;10.65;3.95;;;;;;;18.16;60.65;100971.19;5093589;28;20111;-57
2022/06/23 02:10:09;;;;;;;8.02;3.20;;;;;;;17.85;62.10;100972.69;5092399;28;20027;-56
2022/06/23 02:13:04;;;;;;;6.45;2.83;;;;;;;17.65;62.66;100981.31;5093585;28;20024;-56
2022/06/23 02:15:47;;;;;;;5.70;2.50;;;;;;;17.62;63.03;100993.47;5080444;28;20028;-56
2022/06/23 02:18:35;;;;;;;6.28;2.70;;;;;;;17.54;63.06;100991.19;5092142;28;20430;-56
2022/06/23 02:21:04;;;;;;;5.22;2.90;;;;;;;17.55;62.76;101002.84;5093743;28;20024;-56
2022/06/23 02:23:31;;;;;;;5.50;2.95;;;;;;;17.67;62.60;101000.88;5093817;28;20020;-57
2022/06/23 02:26:13;;;;;;;6.95;3.13;;;;;;;17.63;62.74;100987.00;5093210;28;20020;-57
2022/06/23 02:29:23;;;;;;;5.75;3.00;;;;;;;17.49;62.99;100988.44;5093608;28;20030;-56
2022/06/23 02:32:15;;;;;;;7.15;3.30;;;;;;;17.26;63.81;100985.88;5085474;28;20511;-56
2022/06/23 02:34:46;;;;;;;5.82;3.28;;;;;;;17.23;64.39;100994.50;5093407;28;20028;-56
2022/06/23 02:37:46;;;;;;;6.57;3.45;;;;;;;17.17;64.25;100995.50;5093367;28;20133;-56
2022/06/23 02:40:25;;;;;;;6.45;3.05;;;;;;;17.22;64.01;101001.00;5093371;28;20024;-56
2022/06/23 02:43:17;;;;;;;6.68;2.88;;;;;;;17.17;64.06;100995.50;5093190;28;20514;-56
2022/06/23 02:45:58;;;;;;;6.97;2.92;;;;;;;17.38;63.62;100989.34;5061963;28;20079;-56
2022/06/23 02:48:56;;;;;;;6.80;3.70;;;;;;;17.20;64.19;100989.59;5093019;28;20053;-56
2022/06/23 02:51:22;;;;;;;7.05;3.20;;;;;;;17.40;63.82;100995.31;5092766;28;20059;-56
2022/06/23 02:53:58;;;;;;;9.52;3.47;;;;;;;17.42;63.41;100994.00;5093736;28;20379;-56
2022/06/23 02:56:38;;;;;;;9.45;3.67;;;;;;;17.47;63.10;101003.25;5093017;28;20035;-56
2022/06/23 02:59:39;;;;;;;5.63;3.00;;;;;;;17.52;63.11;101009.56;5092897;28;20032;-56
2022/06/23 03:02:20;;;;;;;9.25;3.33;;;;;;;17.76;62.56;101004.78;5092788;28;20024;-56
2022/06/23 03:04:57;;;;;;;9.18;3.70;;;;;;;17.84;61.66;101000.84;5092926;28;20476;-57
2022/06/23 03:07:38;;;;;;;6.80;3.22;;;;;;;18.19;60.98;101003.19;5093164;28;20051;-57
2022/06/23 03:10:20;;;;;;;5.30;3.00;;;;;;;18.16;60.83;100999.09;5092636;28;20032;-56
2022/06/23 03:13:03;;;;;;;5.70;2.88;;;;;;;18.40;60.29;101004.25;5092886;28;20112;-56
2022/06/23 03:15:54;;;;;;;7.13;2.63;;;;;;;18.40;60.39;101009.69;5093492;28;20024;-56
2022/06/23 03:18:55;;;;;;;6.90;2.83;;;;;;;18.27;60.53;101005.47;5092882;28;20112;-56
2022/06/23 03:21:28;;;;;;;8.65;3.28;;;;;;;18.14;61.08;100998.53;5092713;28;20487;-56
2022/06/23 03:24:11;;;;;;;12.48;3.47;;;;;;;18.12;61.25;101006.09;5092827;28;20024;-56
2022/06/23 03:27:00;;;;;;;8.88;3.10;;;;;;;17.87;61.94;101003.88;5092568;28;20044;-57
2022/06/23 03:29:39;;;;;;;5.97;3.45;;;;;;;17.85;61.85;101010.63;5092630;28;20028;-56
2022/06/23 03:32:21;;;;;;;9.23;3.22;;;;;;;18.07;61.30;101016.06;5092654;28;20101;-56
2022/06/23 03:35:04;;;;;;;6.88;3.17;;;;;;;18.05;61.09;101010.06;5092855;28;20020;-57
2022/06/23 03:38:05;;;;;;;7.72;2.90;;;;;;;18.10;60.97;101002.84;5092635;28;20024;-57
2022/06/23 03:43:31;;;;;;;10.30;4.15;;;;;;;18.32;60.57;100961.34;5092653;28;20085;-57
2022/06/23 03:46:24;;;;;;;5.95;3.30;;;;;;;18.47;60.36;100928.97;5092446;28;20035;-55
2022/06/23 03:49:19;;;;;;;9.23;2.97;;;;;;;18.40;60.63;100923.78;5092375;28;20024;-57
2022/06/23 03:51:51;;;;;;;6.65;3.33;;;;;;;18.35;60.60;100893.09;5066229;28;20032;-57
2022/06/23 03:54:23;;;;;;;8.90;3.67;;;;;;;18.30;60.96;100850.50;5092538;28;20023;-57
2022/06/23 03:56:52;;;;;;;6.22;3.22;;;;;;;18.16;61.19;100858.25;5092299;28;20081;-57
2022/06/23 03:59:25;;;;;;;7.60;3.50;;;;;;;17.78;62.64;100907.09;5092186;28;20023;-57
2022/06/23 04:02:03;;;;;;;8.57;3.55;;;;;;;17.70;63.11;100908.31;5093786;28;20051;-56
2022/06/23 04:04:53;;;;;;;6.30;3.28;;;;;;;17.64;63.69;100885.78;5096205;28;20024;-57
2022/06/23 04:08:01;;;;;;;4.75;3.15;;;;;;;17.34;63.90;100920.56;5096569;28;20046;-56
2022/06/23 04:10:37;;;;;;;4.15;2.80;;;;;;;17.17;65.04;100936.00;5096130;28;20043;-56
2022/06/23 04:13:30;;;;;;;6.97;3.50;;;;;;;17.17;64.85;100927.88;5096366;28;20031;-56
2022/06/23 04:16:08;;;;;;;5.50;2.63;;;;;;;17.12;65.35;100956.47;5089483;28;20515;-56
2022/06/23 04:18:39;;;;;;;7.25;2.28;;;;;;;16.95;65.71;101017.03;5095746;28;20027;-56
2022/06/23 04:21:19;;;;;;;5.60;2.70;;;;;;;16.91;64.97;101054.53;5095682;28;20071;-56
2022/06/23 04:23:58;;;;;;;6.53;2.70;;;;;;;16.97;64.44;101028.41;5095835;28;20384;-56
2022/06/23 04:26:46;;;;;;;7.32;2.60;;;;;;;17.05;63.90;100982.06;5096594;28;20024;-56
2022/06/23 04:29:28;;;;;;;10.05;2.83;;;;;;;17.11;63.78;100949.44;5096393;28;20368;-56
2022/06/23 04:32:07;;;;;;;7.45;3.00;;;;;;;17.03;64.51;100940.91;5095792;28;20365;-56
2022/06/23 04:34:42;;;;;;;12.07;3.53;;;;;;;17.06;64.29;100965.59;5095521;28;20108;-56
2022/06/23 04:37:36;;;;;;;10.00;3.55;;;;;;;17.03;64.55;100947.13;5095991;28;20024;-57
2022/06/23 04:40:18;;;;;;;8.95;3.30;;;;;;;16.95;64.55;101015.16;5095155;28;20032;-56
2022/06/23 04:42:53;;;;;;;9.43;3.50;;;;;;;17.03;63.78;100974.16;5095304;28;20036;-56
2022/06/23 04:45:31;;;;;;;7.13;3.70;;;;;;;16.81;64.94;101024.63;5095388;28;20020;-56
2022/06/23 04:48:00;;;;;;;11.02;3.72;;;;;;;17.02;61.77;101007.69;5095339;28;20028;-56
2022/06/23 04:50:49;;;;;;;15.45;3.97;;;;;;;17.32;58.98;101028.19;5095030;28;20068;-56
2022/06/23 04:53:35;;;;;;;6.97;3.35;;;;;;;17.61;58.63;101032.44;5095502;28;20163;-56
2022/06/23 04:56:42;;;;;;;10.18;3.08;;;;;;;17.82;59.59;100998.41;5064250;28;20051;-56
2022/06/23 04:59:31;;;;;;;10.30;3.40;;;;;;;17.97;59.66;100992.34;5095329;28;20032;-56
2022/06/23 05:02:02;;;;;;;11.15;3.85;;;;;;;17.86;60.41;101021.19;5094897;28;20028;-56
2022/06/23 05:04:39;;;;;;;14.50;4.10;;;;;;;17.56;62.21;101062.16;5095197;28;20032;-56
2022/06/23 05:07:24;;;;;;;12.63;4.20;;;;;;;17.32;63.33;101069.63;5095462;28;20031;-56
2022/06/23 05:09:57;;;;;;;10.73;4.00;;;;;;;17.15;64.51;101039.81;5093772;28;20028;-57
2022/06/23 05:12:39;;;;;;;14.93;4.15;;;;;;;16.94;65.58;101064.88;5094698;28;20028;-57
2022/06/23 05:15:32;;;;;;;14.52;5.35;;;;;;;16.87;65.92;101024.47;5094375;28;20024;-57
2022/06/23 05:18:05;;;;;;;17.52;4.70;;;;;;;16.79;66.17;101021.34;5094831;28;20031;-57
2022/06/23 05:20:55;;;;;;;10.07;4.18;;;;;;;16.83;66.07;101072.00;5094736;28;20043;-57
2022/06/23 05:23:36;;;;;;;12.95;4.60;;;;;;;16.84;65.32;101056.59;5094583;28;20114;-56
2022/06/23 05:26:24;;;;;;;15.15;4.68;;;;;;;16.87;65.31;101061.50;5094263;28;20024;-56
2022/06/23 05:28:59;;;;;;;13.43;4.50;;;;;;;16.83;65.58;101066.59;5094418;28;20028;-56
2022/06/23 05:31:35;;;;;;;14.20;4.20;;;;;;;16.89;65.50;101079.13;5094365;28;20028;-57
2022/06/23 05:34:28;;;;;;;16.30;4.72;;;;;;;16.91;65.51;101084.28;5094614;28;20264;-56
2022/06/23 05:36:57;;;;;;;14.00;4.60;;;;;;;17.02;65.52;101118.56;5086342;28;20482;-57
2022/06/23 05:39:32;;;;;;;17.48;4.38;;;;;;;17.05;65.08;101112.69;5094106;28;20514;-57
2022/06/23 05:41:59;;;;;;;;;;;;;;;17.18;64.82;101099.91;5094596;28;20102;-56
2022/06/23 05:44:34;;;;;;;9.00;3.33;;;;;;;17.22;64.08;101115.44;5094420;28;19924;-56
2022/06/23 05:47:02;;;;;;;10.90;2.90;;;;;;;17.24;63.87;101115.19;5093937;28;20025;-57
2022/06/23 05:49:43;;;;;;;12.65;3.65;;;;;;;17.21;64.22;101102.13;5093762;28;20099;-57
2022/06/23 05:52:18;;;;;;;9.65;3.72;;;;;;;17.12;64.50;101107.13;5093815;28;20047;-56
2022/06/23 05:54:47;;;;;;;14.38;3.92;;;;;;;17.07;64.62;101150.28;5094368;28;20024;-59
2022/06/23 05:57:41;;;;;;;9.40;3.47;;;;;;;16.93;64.94;101200.31;5093685;28;20050;-56
2022/06/23 06:00:14;;;;;;;10.13;3.25;;;;;;;16.99;65.45;101175.00;5093673;28;20038;-57
2022/06/23 06:02:51;;;;;;;11.05;3.50;;;;;;;17.03;64.79;101179.69;5093666;28;20036;-57
2022/06/23 06:05:34;;;;;;;9.25;3.25;;;;;;;17.09;64.75;101121.94;5094053;28;20024;-57
2022/06/23 06:08:05;;;;;;;6.25;3.17;;;;;;;17.17;64.26;101111.81;5093846;28;20035;-57
2022/06/23 06:10:34;;;;;;;5.30;2.65;;;;;;;17.07;64.47;101132.19;5093901;28;20533;-57
2022/06/23 06:13:02;;;;;;;9.65;3.65;;;;;;;17.06;64.37;101121.63;5093474;28;20078;-57
2022/06/23 06:15:32;;;;;;;7.63;3.00;;;;;;;17.26;63.74;101107.63;5093577;28;20024;-57
2022/06/23 06:18:28;;;;;;;7.03;3.13;;;;;;;17.23;63.67;101070.25;5094131;28;20024;-57
2022/06/23 06:21:00;;;;;;;7.72;3.17;;;;;;;17.26;63.29;101078.69;5071512;28;20042;-57
2022/06/23 06:23:43;;;;;;;8.10;3.17;;;;;;;17.26;63.63;101107.63;5093315;28;20100;-57
2022/06/23 06:26:16;;;;;;;10.13;3.38;;;;;;;17.25;63.43;101135.75;5092937;28;20095;-57
2022/06/23 06:28:43;;;;;;;11.32;3.70;;;;;;;17.19;63.77;101140.25;5093252;28;20082;-57
2022/06/23 06:31:22;;;;;;;7.63;3.20;;;;;;;17.42;63.50;101106.81;5093098;28;20031;-57
2022/06/23 06:33:54;;;;;;;13.35;3.22;;;;;;;17.52;62.95;101096.19;5093204;28;20449;-56
2022/06/23 06:36:26;;;;;;;10.90;3.42;;;;;;;17.50;63.12;101122.66;5093139;28;20024;-57
2022/06/23 06:38:59;;;;;;;9.90;3.58;;;;;;;17.27;63.80;101139.06;5093108;28;20077;-56
2022/06/23 06:41:25;;;;;;;10.63;3.95;;;;;;;17.36;63.64;101156.50;5093455;28;20356;-57
2022/06/23 06:43:53;;;;;;;10.93;4.00;;;;;;;17.26;64.37;101156.31;5092944;28;20446;-56
2022/06/23 06:46:19;;;;;;;15.23;3.75;;;;;;;17.31;64.36;101151.81;5093004;28;20487;-57
2022/06/23 06:48:46;;;;;;;10.93;4.13;;;;;;;17.43;63.83;101130.09;5092930;28;20048;-57
2022/06/23 06:51:19;;;;;;;9.35;4.28;;;;;;;17.52;63.65;101142.19;5093021;28;20032;-57
2022/06/23 06:54:20;;;;;;;10.85;3.63;;;;;;;17.40;64.20;101141.44;5092999;28;20445;-57
2022/06/23 06:56:51;;;;;;;10.38;4.38;;;;;;;17.55;64.08;101144.41;5093482;28;20034;-57
2022/06/23 06:59:29;;;;;;;12.20;4.28;;;;;;;17.45;64.50;101148.81;5093033;28;20032;-57
2022/06/23 07:02:01;;;;;;;12.63;4.50;;;;;;;17.59;64.02;101145.53;5092878;28;20379;-57
2022/06/23 07:04:36;;;;;;;11.38;3.90;;;;;;;17.56;63.77;101118.97;5092825;28;20025;-57
2022/06/23 07:07:08;;;;;;;11.23;3.80;;;;;;;17.41;64.23;101116.84;5091546;28;20032;-57
2022/06/23 07:10:05;;;;;;;16.25;4.65;;;;;;;17.48;63.28;101126.66;5092773;28;20111;-56
2022/06/23 07:12:40;;;;;;;9.00;3.67;;;;;;;17.57;63.43;101117.91;5092803;28;20024;-57
2022/06/23 07:15:21;;;;;;;13.63;4.05;;;;;;;17.79;62.91;101095.56;5092747;28;20032;-57
2022/06/23 07:18:11;;;;;;;8.15;3.38;;;;;;;17.66;62.77;101081.25;5092801;28;20100;-57
2022/06/23 07:21:17;;;;;;;7.95;3.75;;;;;;;17.47;63.60;101077.16;5092892;28;20076;-57
2022/06/23 07:23:46;;;;;;;8.20;3.60;;;;;;;17.51;63.56;101082.91;5083964;28;20043;-57
2022/06/23 07:26:44;;;;;;;11.57;3.83;;;;;;;17.35;64.28;101069.09;5092733;28;20036;-57
2022/06/23 07:29:40;;;;;;;11.50;4.18;;;;;;;17.25;64.87;101060.00;5092494;28;20035;-56
2022/06/23 07:32:35;;;;;;;8.75;4.15;;;;;;;17.03;66.04;101058.00;5092785;28;20036;-57
2022/06/23 07:35:13;;;;;;;13.85;4.45;;;;;;;17.04;66.49;101056.94;5093185;28;20035;-56
2022/06/23 07:37:54;;;;;;;10.93;4.13;;;;;;;17.17;66.30;101042.31;5095619;28;20126;-57
2022/06/23 07:40:22;;;;;;;12.35;4.13;;;;;;;17.09;66.46;101024.56;5096547;28;20095;-56
2022/06/23 07:43:11;;;;;;;11.30;4.25;;;;;;;17.23;66.15;101011.56;5096404;28;20511;-56
2022/06/23 07:45:53;;;;;;;20.15;5.13;;;;;;;17.10;66.69;101017.28;5096659;28;20492;-56
2022/06/23 07:48:19;;;;;;;10.43;3.80;;;;;;;17.15;66.37;101031.69;5096463;28;20464;-56
2022/06/23 07:50:46;;;;;;;13.93;4.15;;;;;;;17.07;66.44;101051.06;5095963;28;20028;-56
2022/06/23 07:53:24;;;;;;;9.05;3.78;;;;;;;17.03;66.19;101063.41;5096249;28;20085;-57
2022/06/23 07:55:50;;;;;;;9.23;4.03;;;;;;;17.05;66.91;101057.78;5096377;28;20051;-56
2022/06/23 07:58:21;;;;;;;9.85;4.03;;;;;;;17.09;66.89;101067.03;5096165;28;20046;-56
2022/06/23 08:00:53;;;;;;;12.45;4.38;;;;;;;17.24;67.08;101067.28;5096449;28;20375;-57
2022/06/23 08:03:46;;;;;;;12.82;4.35;;;;;;;17.24;66.98;101058.38;5096360;28;20077;-57
2022/06/23 08:06:18;;;;;;;12.15;3.85;;;;;;;17.46;66.80;101048.44;5096160;28;20058;-56
2022/06/23 08:08:46;;;;;;;11.98;4.13;;;;;;;17.51;66.41;101045.81;5095877;28;20395;-57
2022/06/23 08:14:12;;;;;;;11.93;3.63;;;;;;;17.51;65.80;101039.59;5095946;28;20510;-57
2022/06/23 08:16:51;;;;;;;9.63;4.35;;;;;;;17.09;67.50;101051.63;5095725;28;20028;-57
2022/06/23 08:19:41;;;;;;;11.32;4.13;;;;;;;17.39;66.41;101042.38;5095714;28;20052;-57
2022/06/23 08:22:14;;;;;;;11.20;4.30;;;;;;;17.53;66.20;101051.81;5095963;28;20024;-57
2022/06/23 08:24:44;;;;;;;11.82;3.80;;;;;;;17.21;66.83;101067.78;5095603;28;20016;-57
2022/06/23 08:27:16;;;;;;;10.48;3.63;;;;;;;16.60;69.61;101066.63;5095890;28;20145;-56
2022/06/23 08:29:50;;;;;;;20.20;5.38;;;;;;;16.87;68.80;101047.97;5096323;28;20222;-57
2022/06/23 08:32:17;;;;;;;9.95;4.38;;;;;;;17.09;68.00;101031.88;5095530;28;20372;-57
2022/06/23 08:34:59;;;;;;;12.13;3.95;;;;;;;17.19;67.36;101033.94;5095509;28;20028;-57
2022/06/23 08:37:25;;;;;;;16.33;4.30;;;;;;;17.07;68.26;101034.81;5095426;28;20031;-56
2022/06/23 08:40:00;;;;;;;10.05;3.97;;;;;;;17.08;67.48;101027.53;5095204;28;20111;-57
2022/06/23 08:42:59;;;;;;;10.85;4.43;;;;;;;17.32;67.15;101004.69;5095195;28;20043;-57
2022/06/23 08:45:39;;;;;;;12.85;4.53;;;;;;;17.50;66.43;101005.50;5095214;28;20052;-57
2022/06/23 08:48:13;;;;;;;12.57;4.45;;;;;;;17.34;66.66;101023.38;5094522;28;20051;-57
2022/06/23 08:50:44;;;;;;;14.98;4.40;;;;;;;16.99;68.20;101027.13;5095600;28;20023;-57
2022/06/23 08:53:37;;;;;;;11.32;4.32;;;;;;;17.39;66.56;101031.56;5094900;28;20107;-56
2022/06/23 08:56:10;;;;;;;10.07;4.05;;;;;;;17.65;65.37;101030.88;5095383;28;20426;-57
2022/06/23 08:58:52;;;;;;;9.88;4.20;;;;;;;17.78;64.75;101028.94;5095197;28;20028;-57
2022/06/23 09:01:30;;;;;;;9.02;3.60;;;;;;;17.69;64.94;101026.59;5094960;28;20016;-57
2022/06/23 09:04:21;;;;;;;16.42;5.15;;;;;;;17.94;63.50;101020.78;5095452;28;20077;-55
2022/06/23 09:06:47;;;;;;;9.68;4.07;;;;;;;17.86;63.77;101015.78;5094990;28;20025;-57
2022/06/23 09:09:28;;;;;;;9.52;3.78;;;;;;;17.56;64.65;101021.53;5094588;28;20025;-57
2022/06/23 09:12:08;;;;;;;17.00;4.78;;;;;;;17.19;66.14;101021.22;5094687;28;20487;-57
2022/06/23 09:15:10;;;;;;;11.65;4.40;;;;;;;17.76;64.20;101003.97;5094632;28;20028;-56
2022/06/23 09:17:55;;;;;;;8.40;3.42;;;;;;;17.64;65.74;100991.34;5094936;28;20396;-57
2022/06/23 09:20:41;;;;;;;10.05;4.20;;;;;;;17.73;64.77;100990.97;5094535;28;20028;-56
2022/06/23 09:23:33;;;;;;;12.00;4.20;;;;;;;17.85;65.08;100988.94;5094437;28;20026;-56
2022/06/23 09:26:02;;;;;;;13.35;3.75;;;;;;;17.89;65.02;100980.09;5094553;28;20056;-57
2022/06/23 09:28:40;;;;;;;9.32;4.22;;;;;;;17.97;64.82;100986.13;5094462;28;20044;-57
2022/06/23 09:31:18;;;;;;;6.82;3.70;;;;;;;17.57;67.00;100984.47;5094847;28;20582;-57
2022/06/23 09:34:14;;;;;;;9.18;3.65;;;;;;;17.53;67.36;100972.50;5094314;28;20479;-57
2022/06/23 09:36:50;;;;;;;9.05;3.63;;;;;;;17.55;67.83;100975.78;5094239;28;20028;-56
2022/06/23 09:39:40;;;;;;;6.10;2.75;;;;;;;17.54;67.16;100993.06;5094194;28;20035;-57
2022/06/23 09:42:22;;;;;;;6.63;2.88;;;;;;;17.53;66.88;100994.97;5093954;28;20089;-56
2022/06/23 09:44:54;;;;;;;5.85;2.95;;;;;;;17.49;66.99;100979.47;5094043;28;20101;-57
2022/06/23 09:47:47;;;;;;;5.97;3.05;;;;;;;17.41;67.97;100989.66;5094518;28;20137;-56
2022/06/23 09:50:38;;;;;;;7.70;2.85;;;;;;;17.09;69.39;101005.63;5094123;28;20039;-57
2022/06/23 09:53:23;;;;;;;5.97;3.65;;;;;;;16.63;71.69;100995.88;5094245;28;20035;-57
2022/06/23 09:55:49;;;;;;;9.10;3.65;;;;;;;16.84;70.68;100987.13;5094008;28;20020;-57
2022/06/23 09:58:37;;;;;;;10.98;3.38;;;;;;;16.87;70.25;100988.50;5093861;28;20028;-57
2022/06/23 10:01:15;;;;;;;7.70;2.70;;;;;;;16.78;69.98;100973.75;5093984;28;20031;-57
2022/06/23 10:03:52;;;;;;;6.47;2.88;;;;;;;16.89;69.70;100949.34;5093990;28;20091;-57
2022/06/23 10:06:38;;;;;;;7.70;3.25;;;;;;;17.15;68.83;100976.78;5093895;28;20129;-57
2022/06/23 10:09:18;;;;;;;6.50;3.05;;;;;;;17.18;69.22;100987.13;5093612;28;20032;-57
2022/06/23 10:12:00;;;;;;;6.82;3.10;;;;;;;17.09;69.67;100975.88;5094219;28;20027;-57
2022/06/23 10:14:53;;;;;;;10.80;3.38;;;;;;;17.16;69.33;100973.03;5093748;28;20080;-57
2022/06/23 10:17:34;;;;;;;7.72;3.47;;;;;;;16.71;71.11;100982.03;5093976;28;20119;-57
2022/06/23 10:20:34;;;;;;;8.65;3.70;;;;;;;16.77;70.65;100993.75;5093437;28;20392;-57
2022/06/23 10:23:06;;;;;;;7.53;3.78;;;;;;;16.83;70.24;100996.28;5093436;28;20020;-57
2022/06/23 10:25:45;;;;;;;9.55;3.58;;;;;;;16.83;69.82;100987.38;5094102;28;20020;-57
2022/06/23 10:28:17;;;;;;;6.80;3.50;;;;;;;16.69;69.88;101000.31;5093360;28;20024;-57
2022/06/23 10:30:43;;;;;;;4.68;2.88;;;;;;;16.66;70.40;101014.34;5093723;28;20038;-57
2022/06/23 10:33:30;;;;;;;7.50;3.50;;;;;;;16.98;69.47;101008.41;5093735;28;20574;-57
2022/06/23 10:36:47;;;;;;;8.77;4.30;;;;;;;16.85;69.42;100994.16;5093322;28;20028;-57
2022/06/23 10:39:44;;;;;;;7.85;3.78;;;;;;;17.04;69.76;100986.63;5050962;28;20032;-56
2022/06/23 10:42:35;;;;;;;8.23;3.88;;;;;;;16.75;70.45;100976.94;5050639;28;20592;-57
2022/06/23 10:45:29;;;;;;;7.70;3.70;;;;;;;16.85;70.14;100974.41;5086686;28;20139;-57
2022/06/23 10:48:26;;;;;;;10.88;4.10;;;;;;;16.80;70.74;100968.91;5093128;28;20028;-57
2022/06/23 10:51:19;;;;;;;6.43;3.55;;;;;;;16.92;70.27;100985.88;5092878;28;20521;-57
2022/06/23 10:54:24;;;;;;;7.07;3.40;;;;;;;17.04;69.05;100973.09;5092970;28;20503;-57
2022/06/23 10:57:16;;;;;;;9.85;3.97;;;;;;;17.08;69.12;100968.84;5092942;28;20039;-57
2022/06/23 11:00:07;;;;;;;8.23;3.58;;;;;;;16.97;70.08;100974.34;5091877;28;20036;-57
2022/06/23 11:02:39;;;;;;;11.52;4.00;;;;;;;16.91;69.69;100986.94;5092847;28;20040;-57
2022/06/23 11:05:35;;;;;;;10.25;3.88;;;;;;;16.96;69.76;100988.94;5093490;28;20027;-57
2022/06/23 11:08:37;;;;;;;13.75;4.18;;;;;;;16.96;69.95;100992.44;5092797;28;20028;-57
2022/06/23 11:11:24;;;;;;;7.18;3.83;;;;;;;17.01;69.89;100986.31;5093444;28;20197;-57
2022/06/23 11:14:16;;;;;;;7.57;3.42;;;;;;;17.26;68.50;100994.81;5097353;28;20103;-57
2022/06/23 11:17:01;;;;;;;5.47;3.33;;;;;;;17.34;67.79;100996.31;5096981;28;20163;-57
2022/06/23 11:19:47;;;;;;;8.10;3.10;;;;;;;17.37;67.42;101012.03;5097125;28;20028;-57
2022/06/23 11:22:32;;;;;;;7.25;3.30;;;;;;;17.55;65.78;101003.69;5096973;28;20035;-57
2022/06/23 11:25:13;;;;;;;7.72;3.60;;;;;;;17.69;65.00;101009.53;5096719;28;20539;-57
2022/06/23 11:27:51;;;;;;;4.80;2.42;;;;;;;17.48;65.77;101013.00;5096785;28;20071;-57
2022/06/23 11:30:33;;;;;;;13.60;4.15;;;;;;;17.55;66.09;101019.09;5097109;28;20107;-57
2022/06/23 11:33:34;;;;;;;6.32;3.55;;;;;;;17.35;67.73;101012.28;5096765;28;20020;-56
2022/06/23 11:36:18;;;;;;;5.93;2.95;;;;;;;16.34;71.72;101009.41;5096604;28;20073;-57
2022/06/23 11:39:05;;;;;;;9.50;3.13;;;;;;;16.67;70.36;101013.25;5096466;28;20031;-56
2022/06/23 11:41:37;;;;;;;6.32;2.92;;;;;;;16.65;70.19;101018.06;5096703;28;20081;-56
2022/06/23 11:44:27;;;;;;;3.65;2.75;;;;;;;16.65;69.89;101026.19;5095209;28;20036;-57
2022/06/23 11:46:57;;;;;;;5.78;2.83;;;;;;;16.41;70.84;101030.03;5096388;28;20042;-57
2022/06/23 11:49:35;;;;;;;5.65;3.10;;;;;;;16.38;70.72;101020.56;5096786;28;20031;-57
2022/06/23 11:52:32;;;;;;;6.07;2.70;;;;;;;16.30;71.24;101020.91;5096879;28;20349;-56
2022/06/23 11:55:23;;;;;;;5.45;2.80;;;;;;;16.12;71.62;101021.09;5071105;28;20365;-56
2022/06/23 11:58:26;;;;;;;6.07;3.20;;;;;;;16.32;70.93;101022.31;5096683;28;20028;-57
2022/06/23 12:01:15;;;;;;;5.30;3.03;;;;;;;15.95;71.92;101023.69;5097099;28;20066;-57
2022/06/23 12:04:06;;;;;;;4.00;3.10;;;;;;;15.83;72.41;101024.53;5095902;28;20111;-57
2022/06/23 12:06:32;;;;;;;5.93;3.17;;;;;;;15.87;72.12;101029.44;5096045;28;20034;-57
2022/06/23 12:09:01;;;;;;;4.32;3.00;;;;;;;15.73;72.47;101035.09;5094561;28;20365;-57
2022/06/23 12:11:30;;;;;;;7.53;3.80;;;;;;;15.75;72.67;101024.88;5095871;28;20352;-56
2022/06/23 12:14:00;;;;;;;6.40;4.30;;;;;;;15.85;72.11;101035.09;5096212;28;20027;-57
2022/06/23 12:16:26;;;;;;;5.18;4.13;;;;;;;15.71;72.70;101033.66;5095715;28;20077;-56
2022/06/23 12:19:01;;;;;;;6.53;3.90;;;;;;;15.47;73.61;101035.53;5095720;28;20380;-57
2022/06/23 12:21:27;;;;;;;;;;;;;;;15.46;73.30;101033.88;5096037;28;20016;-56
2022/06/23 12:24:29;;;;;;;7.68;4.78;;;;;;;15.57;72.67;101020.41;5094093;28;19959;-57
2022/06/23 12:27:18;;;;;;;6.30;4.50;;;;;;;15.77;71.79;101014.69;5095921;28;20379;-56
2022/06/23 12:30:05;;;;;;;7.95;5.70;;;;;;;15.39;73.68;101023.22;5095697;28;20385;-57
2022/06/23 12:32:55;;;;;;;7.88;4.95;;;;;;;15.72;72.09;101032.63;5096111;28;20098;-57